Terminal Aerodrome Forecast
Issued by NWS

Home | Current Version | Previous Version | Graphics & Text | Print | Product List | Glossary On
Versions: 1 2 3 4 5 6 7 8 9 10 11 12 13 14 15 16 17 18 19 20
000
FTUS43 KFGF 102340
TAFBJI
TAF
KBJI 102340Z 1100/1124 VRB03KT P6SM BKN060
     FM110200 VRB03KT P6SM BKN020
     FM110500 18004KT 3/4SM -SN OVC015
     FM110900 21004KT 2SM -SN OVC008
     FM111200 31007KT P6SM OVC008
     FM112200 32017G26KT P6SM SCT015=

USA.gov is the U.S. government's official web portal to all federal, state and local government web resources and services.